createdAt,value
2017-10-21T00:02:23.723Z,12.60
2017-10-21T00:04:58.358Z,12.70
2017-10-21T00:07:32.777Z,12.60
2017-10-21T00:10:14.934Z,12.60
2017-10-21T00:12:49.566Z,12.70
2017-10-21T00:15:24.046Z,12.70
2017-10-21T00:17:58.722Z,12.70
2017-10-21T00:20:33.253Z,12.70
2017-10-21T00:23:07.806Z,12.70
2017-10-21T00:25:42.394Z,12.70
2017-10-21T00:28:16.950Z,12.70
2017-10-21T00:30:51.563Z,12.70
2017-10-21T00:33:26.113Z,12.70
2017-10-21T00:36:00.748Z,12.80
2017-10-21T00:38:36.193Z,12.90
2017-10-21T00:41:10.725Z,12.80
2017-10-21T00:43:46.153Z,12.80
2017-10-21T00:46:20.613Z,12.80
2017-10-21T00:48:55.234Z,12.80
2017-10-21T00:51:29.865Z,12.80
2017-10-21T00:54:04.505Z,12.90
2017-10-21T00:56:38.371Z,12.90
2017-10-21T00:59:12.266Z,12.90
2017-10-21T01:01:46.845Z,12.90
2017-10-21T01:04:21.293Z,12.90
2017-10-21T01:06:55.526Z,12.90
2017-10-21T01:09:29.889Z,12.90
2017-10-21T01:12:04.401Z,12.90
2017-10-21T01:14:38.993Z,12.90
2017-10-21T01:17:13.575Z,12.90
2017-10-21T01:19:47.870Z,13.00
2017-10-21T01:22:21.715Z,13.00
2017-10-21T01:24:55.682Z,13.00
2017-10-21T01:27:29.498Z,13.00
2017-10-21T01:32:43.606Z,13.00
2017-10-21T01:35:17.890Z,13.00
2017-10-21T01:37:51.816Z,12.90
2017-10-21T01:40:26.274Z,13.00
2017-10-21T01:43:00.040Z,13.00
2017-10-21T01:45:34.994Z,13.00
2017-10-21T01:48:09.119Z,12.90
2017-10-21T01:50:43.043Z,12.90
2017-10-21T01:53:16.774Z,12.90
2017-10-21T01:55:50.549Z,12.90
2017-10-21T01:58:24.298Z,12.90
2017-10-21T02:00:58.578Z,12.90
2017-10-21T02:03:33.142Z,12.80
2017-10-21T02:06:08.446Z,12.80
2017-10-21T02:08:42.373Z,12.70
2017-10-21T02:11:16.182Z,12.80
2017-10-21T02:13:50.242Z,12.80
2017-10-21T02:16:24.930Z,12.70
2017-10-21T02:18:59.157Z,12.60
2017-10-21T02:21:32.998Z,12.70
2017-10-21T02:24:07.111Z,12.70
2017-10-21T02:26:41.391Z,12.70
2017-10-21T02:29:15.157Z,12.60
2017-10-21T02:31:48.929Z,12.60
2017-10-21T02:34:22.866Z,12.60
2017-10-21T02:36:57.314Z,12.50
2017-10-21T02:39:31.962Z,12.40
2017-10-21T02:42:05.861Z,12.40
2017-10-21T02:44:40.178Z,12.40
2017-10-21T02:47:14.678Z,12.30
2017-10-21T02:49:49.414Z,12.30
2017-10-21T02:52:24.090Z,12.30
2017-10-21T02:54:58.398Z,12.30
2017-10-21T02:57:32.998Z,12.30
2017-10-21T03:00:14.208Z,12.10
2017-10-21T03:02:48.846Z,12.10
2017-10-21T03:05:23.098Z,12.00
2017-10-21T03:07:57.390Z,11.70
2017-10-21T03:10:31.647Z,11.70
2017-10-21T03:13:06.294Z,11.60
2017-10-21T03:15:40.838Z,11.50
2017-10-21T03:18:15.326Z,11.40
2017-10-21T03:20:49.822Z,11.40
2017-10-21T03:23:24.318Z,11.30
2017-10-21T03:25:58.686Z,11.30
2017-10-21T03:28:33.187Z,11.30
2017-10-21T03:31:07.814Z,11.20
2017-10-21T03:33:42.436Z,11.30
2017-10-21T03:36:16.808Z,11.30
2017-10-21T03:38:51.346Z,11.20
2017-10-21T03:41:26.725Z,11.20
2017-10-21T03:44:01.161Z,11.20
2017-10-21T03:46:35.818Z,11.30
2017-10-21T03:49:10.366Z,11.20
2017-10-21T03:51:44.935Z,11.20
2017-10-21T03:54:19.360Z,11.30
2017-10-21T03:56:54.036Z,11.20
2017-10-21T03:59:28.638Z,11.20
2017-10-21T04:02:03.238Z,11.20
2017-10-21T04:04:37.731Z,11.20
2017-10-21T04:07:12.269Z,11.20
2017-10-21T04:09:46.766Z,11.20
2017-10-21T04:12:20.570Z,11.10
2017-10-21T04:14:55.126Z,11.10
2017-10-21T04:17:29.519Z,11.10
2017-10-21T04:22:48.138Z,11.10
2017-10-21T04:25:23.282Z,11.10
2017-10-21T04:27:57.758Z,11.10
2017-10-21T04:30:32.227Z,11.10
2017-10-21T04:33:06.762Z,11.10
2017-10-21T04:35:41.323Z,11.10
2017-10-21T04:38:16.029Z,11.10
2017-10-21T04:40:50.593Z,11.20
2017-10-21T04:43:25.234Z,11.20
2017-10-21T04:45:59.723Z,11.30
2017-10-21T04:48:34.510Z,11.40
2017-10-21T04:51:09.021Z,11.40
2017-10-21T04:53:43.529Z,11.40
2017-10-21T04:56:18.120Z,11.50
2017-10-21T04:58:52.575Z,11.40
2017-10-21T05:01:27.086Z,11.50
2017-10-21T05:04:01.653Z,11.50
2017-10-21T05:06:36.165Z,11.60
2017-10-21T05:09:10.666Z,11.60
2017-10-21T05:11:45.261Z,11.70
2017-10-21T05:14:19.641Z,11.70
2017-10-21T05:16:54.047Z,11.70
2017-10-21T05:19:28.485Z,11.70
2017-10-21T05:22:02.941Z,11.70
2017-10-21T05:24:37.522Z,11.80
2017-10-21T05:27:12.166Z,11.90
2017-10-21T05:29:46.758Z,11.90
2017-10-21T05:32:21.418Z,12.00
2017-10-21T05:34:56.841Z,12.10
2017-10-21T05:37:31.458Z,12.00
2017-10-21T05:40:15.514Z,12.10
2017-10-21T05:42:49.846Z,12.10
2017-10-21T05:45:24.156Z,12.10
2017-10-21T05:47:58.435Z,12.20
2017-10-21T05:50:32.994Z,12.20
2017-10-21T05:53:07.642Z,12.20
2017-10-21T05:55:41.941Z,12.20
2017-10-21T05:58:18.155Z,12.30
2017-10-21T06:00:52.613Z,12.30
2017-10-21T06:03:27.062Z,12.30
2017-10-21T06:06:01.509Z,12.30
2017-10-21T06:08:36.018Z,12.30
2017-10-21T06:11:10.465Z,12.30
2017-10-21T06:13:44.834Z,12.40
2017-10-21T06:16:19.185Z,12.40
2017-10-21T06:18:53.673Z,12.40
2017-10-21T06:21:28.889Z,12.40
2017-10-21T06:24:03.562Z,12.40
2017-10-21T06:26:38.122Z,12.40
2017-10-21T06:29:12.755Z,12.50
2017-10-21T06:31:47.090Z,12.40
2017-10-21T06:34:21.764Z,12.40
2017-10-21T06:36:56.387Z,12.40
2017-10-21T06:39:30.966Z,12.30
2017-10-21T06:42:05.526Z,12.40
2017-10-21T06:44:39.985Z,12.40
2017-10-21T06:47:14.513Z,12.40
2017-10-21T06:49:49.125Z,12.40
2017-10-21T06:52:23.724Z,12.40
2017-10-21T06:54:58.374Z,12.40
2017-10-21T06:57:32.944Z,12.40
2017-10-21T07:00:15.177Z,12.40
2017-10-21T07:02:49.794Z,12.50
2017-10-21T07:05:25.126Z,12.60
2017-10-21T07:07:59.657Z,12.60
2017-10-21T07:10:34.223Z,12.70
2017-10-21T07:13:08.768Z,12.80
2017-10-21T07:15:43.321Z,12.80
2017-10-21T07:18:18.049Z,12.80
2017-10-21T07:20:52.502Z,12.90
2017-10-21T07:23:26.969Z,12.90
2017-10-21T07:26:01.468Z,12.90
2017-10-21T07:28:36.181Z,12.90
2017-10-21T07:31:10.641Z,12.90
2017-10-21T07:33:45.298Z,12.90
2017-10-21T07:36:19.927Z,12.90
2017-10-21T07:38:54.554Z,12.90
2017-10-21T07:41:29.118Z,12.90
2017-10-21T07:44:03.741Z,12.90
2017-10-21T07:46:38.257Z,13.00
2017-10-21T07:49:12.772Z,12.90
2017-10-21T07:51:47.271Z,12.90
2017-10-21T07:54:21.988Z,12.70
2017-10-21T07:56:56.498Z,12.80
2017-10-21T07:59:31.031Z,12.80
2017-10-21T08:02:05.611Z,12.80
2017-10-21T08:04:40.509Z,12.90
2017-10-21T08:07:15.845Z,12.90
2017-10-21T08:09:50.482Z,12.80
2017-10-21T08:12:25.082Z,12.90
2017-10-21T08:14:59.605Z,12.80
2017-10-21T08:17:34.153Z,12.90
2017-10-21T08:20:16.807Z,12.90
2017-10-21T08:22:51.257Z,13.00
2017-10-21T08:25:25.809Z,12.90
2017-10-21T08:28:00.510Z,12.90
2017-10-21T08:30:35.090Z,12.90
2017-10-21T08:33:09.462Z,12.80
2017-10-21T08:35:43.890Z,12.90
2017-10-21T08:38:18.229Z,12.70
2017-10-21T08:40:52.973Z,12.60
2017-10-21T08:43:27.289Z,12.70
2017-10-21T08:46:01.616Z,12.70
2017-10-21T08:48:35.958Z,12.70
2017-10-21T08:51:10.405Z,12.60
2017-10-21T08:53:44.905Z,12.80
2017-10-21T08:56:19.818Z,12.90
2017-10-21T08:58:54.461Z,13.00
2017-10-21T09:01:28.918Z,13.00
2017-10-21T09:04:03.507Z,13.10
2017-10-21T09:06:38.126Z,13.20
2017-10-21T09:09:12.574Z,13.20
2017-10-21T09:11:47.141Z,13.30
2017-10-21T09:14:21.824Z,13.30
2017-10-21T09:16:56.334Z,13.40
2017-10-21T09:19:30.927Z,13.40
2017-10-21T09:22:05.506Z,13.50
2017-10-21T09:24:40.082Z,13.50
2017-10-21T09:27:14.718Z,13.60
2017-10-21T09:29:49.382Z,13.70
2017-10-21T09:32:23.987Z,13.80
2017-10-21T09:34:59.356Z,13.70
2017-10-21T09:37:33.930Z,13.70
2017-10-21T09:40:15.883Z,13.70
2017-10-21T09:42:50.647Z,13.80
2017-10-21T09:45:25.254Z,13.90
2017-10-21T09:47:59.865Z,14.00
2017-10-21T09:50:34.230Z,14.00
2017-10-21T09:53:08.722Z,14.10
2017-10-21T09:55:43.978Z,14.20
2017-10-21T09:58:18.662Z,14.10
2017-10-21T10:00:53.351Z,14.20
2017-10-21T10:03:27.962Z,14.30
2017-10-21T10:06:02.522Z,14.30
